sensor_id;sensor_type;location;lat;lon;timestamp;temperature;humidity
921;DHT22;447;51.332;6.778;2023-02-05T00:01:24;8.90;99.90
921;DHT22;447;51.332;6.778;2023-02-05T00:03:50;8.90;99.90
921;DHT22;447;51.332;6.778;2023-02-05T00:06:18;8.90;99.90
921;DHT22;447;51.332;6.778;2023-02-05T00:08:44;8.90;99.90
921;DHT22;447;51.332;6.778;2023-02-05T00:11:10;8.90;99.90
921;DHT22;447;51.332;6.778;2023-02-05T00:13:37;8.90;99.90
921;DHT22;447;51.332;6.778;2023-02-05T00:16:12;8.90;99.90
921;DHT22;447;51.332;6.778;2023-02-05T00:18:41;8.90;99.90
921;DHT22;447;51.332;6.778;2023-02-05T00:21:08;8.80;99.90
921;DHT22;447;51.332;6.778;2023-02-05T00:23:35;8.80;99.90
921;DHT22;447;51.332;6.778;2023-02-05T00:26:02;8.80;99.90
921;DHT22;447;51.332;6.778;2023-02-05T00:28:33;8.80;99.90
921;DHT22;447;51.332;6.778;2023-02-05T00:31:08;8.80;99.90
921;DHT22;447;51.332;6.778;2023-02-05T00:33:37;8.80;99.90
921;DHT22;447;51.332;6.778;2023-02-05T00:36:09;8.80;99.90
921;DHT22;447;51.332;6.778;2023-02-05T00:38:41;8.80;99.90
921;DHT22;447;51.332;6.778;2023-02-05T00:41:08;8.80;99.90
921;DHT22;447;51.332;6.778;2023-02-05T00:43:37;8.80;99.90
921;DHT22;447;51.332;6.778;2023-02-05T00:46:03;8.80;99.90
921;DHT22;447;51.332;6.778;2023-02-05T00:48:30;8.80;99.90
921;DHT22;447;51.332;6.778;2023-02-05T00:50:56;8.80;99.90
921;DHT22;447;51.332;6.778;2023-02-05T00:53:23;8.80;99.90
921;DHT22;447;51.332;6.778;2023-02-05T00:55:50;8.80;99.90
921;DHT22;447;51.332;6.778;2023-02-05T00:58:18;8.80;99.90
921;DHT22;447;51.332;6.778;2023-02-05T01:00:45;8.80;99.90
921;DHT22;447;51.332;6.778;2023-02-05T01:03:12;8.80;99.90
921;DHT22;447;51.332;6.778;2023-02-05T01:05:38;8.80;99.90
921;DHT22;447;51.332;6.778;2023-02-05T01:08:06;8.80;99.90
921;DHT22;447;51.332;6.778;2023-02-05T01:10:34;8.80;99.90
921;DHT22;447;51.332;6.778;2023-02-05T01:13:00;8.80;99.90
921;DHT22;447;51.332;6.778;2023-02-05T01:15:26;8.70;99.90
921;DHT22;447;51.332;6.778;2023-02-05T01:17:52;8.80;99.90
921;DHT22;447;51.332;6.778;2023-02-05T01:20:18;8.80;99.90
921;DHT22;447;51.332;6.778;2023-02-05T01:22:45;8.80;99.90
921;DHT22;447;51.332;6.778;2023-02-05T01:25:11;8.80;99.90
921;DHT22;447;51.332;6.778;2023-02-05T01:27:39;8.70;99.90
921;DHT22;447;51.332;6.778;2023-02-05T01:30:09;8.70;99.90
921;DHT22;447;51.332;6.778;2023-02-05T01:32:37;8.70;99.90
921;DHT22;447;51.332;6.778;2023-02-05T01:35:07;8.70;99.90
921;DHT22;447;51.332;6.778;2023-02-05T01:37:33;8.70;99.90
921;DHT22;447;51.332;6.778;2023-02-05T01:40:03;8.70;99.90
921;DHT22;447;51.332;6.778;2023-02-05T01:42:30;8.70;99.90
921;DHT22;447;51.332;6.778;2023-02-05T01:45:24;8.70;99.90
921;DHT22;447;51.332;6.778;2023-02-05T01:48:04;8.70;99.90
921;DHT22;447;51.332;6.778;2023-02-05T01:50:45;8.70;99.90
921;DHT22;447;51.332;6.778;2023-02-05T01:53:15;8.70;99.90
921;DHT22;447;51.332;6.778;2023-02-05T01:56:09;8.70;99.90
921;DHT22;447;51.332;6.778;2023-02-05T01:59:06;8.70;99.90
921;DHT22;447;51.332;6.778;2023-02-05T02:01:34;8.70;99.90
921;DHT22;447;51.332;6.778;2023-02-05T02:04:01;8.70;99.90
921;DHT22;447;51.332;6.778;2023-02-05T02:06:34;8.70;99.90
921;DHT22;447;51.332;6.778;2023-02-05T02:09:02;8.70;99.90
921;DHT22;447;51.332;6.778;2023-02-05T02:11:32;8.70;99.90
921;DHT22;447;51.332;6.778;2023-02-05T02:14:04;8.70;99.90
921;DHT22;447;51.332;6.778;2023-02-05T02:16:35;8.70;99.90
921;DHT22;447;51.332;6.778;2023-02-05T02:19:10;8.70;99.90
921;DHT22;447;51.332;6.778;2023-02-05T02:21:44;8.70;99.90
921;DHT22;447;51.332;6.778;2023-02-05T02:27:39;8.60;99.90
921;DHT22;447;51.332;6.778;2023-02-05T02:39:15;8.60;99.90
921;DHT22;447;51.332;6.778;2023-02-05T02:41:25;8.60;99.90
921;DHT22;447;51.332;6.778;2023-02-05T02:43:59;8.60;99.90
921;DHT22;447;51.332;6.778;2023-02-05T02:46:33;8.60;99.90
921;DHT22;447;51.332;6.778;2023-02-05T02:49:06;8.60;99.90
921;DHT22;447;51.332;6.778;2023-02-05T02:51:36;8.60;99.90
921;DHT22;447;51.332;6.778;2023-02-05T02:54:08;8.60;99.90
921;DHT22;447;51.332;6.778;2023-02-05T02:56:40;8.60;99.90
921;DHT22;447;51.332;6.778;2023-02-05T02:59:12;8.60;99.90
921;DHT22;447;51.332;6.778;2023-02-05T03:01:41;8.60;99.90
921;DHT22;447;51.332;6.778;2023-02-05T03:04:13;8.60;99.90
921;DHT22;447;51.332;6.778;2023-02-05T03:06:43;8.60;99.90
921;DHT22;447;51.332;6.778;2023-02-05T03:11:51;8.60;99.90
921;DHT22;447;51.332;6.778;2023-02-05T03:14:21;8.60;99.90
921;DHT22;447;51.332;6.778;2023-02-05T03:16:50;8.60;99.90
921;DHT22;447;51.332;6.778;2023-02-05T03:19:16;8.50;99.90
921;DHT22;447;51.332;6.778;2023-02-05T03:21:49;8.60;99.90
921;DHT22;447;51.332;6.778;2023-02-05T03:24:16;8.60;99.90
921;DHT22;447;51.332;6.778;2023-02-05T03:26:42;8.60;99.90
921;DHT22;447;51.332;6.778;2023-02-05T03:29:33;8.50;99.90
921;DHT22;447;51.332;6.778;2023-02-05T03:41:04;8.50;99.90
921;DHT22;447;51.332;6.778;2023-02-05T03:43:54;8.50;99.90
921;DHT22;447;51.332;6.778;2023-02-05T03:46:50;8.50;99.90
921;DHT22;447;51.332;6.778;2023-02-05T03:49:31;8.50;99.90
921;DHT22;447;51.332;6.778;2023-02-05T03:52:08;8.50;99.90
921;DHT22;447;51.332;6.778;2023-02-05T04:00:26;8.50;99.90
921;DHT22;447;51.332;6.778;2023-02-05T04:02:53;8.50;99.90
921;DHT22;447;51.332;6.778;2023-02-05T04:05:24;8.50;99.90
921;DHT22;447;51.332;6.778;2023-02-05T04:07:53;8.50;99.90
921;DHT22;447;51.332;6.778;2023-02-05T04:10:26;8.50;99.90
921;DHT22;447;51.332;6.778;2023-02-05T04:12:52;8.50;99.90
921;DHT22;447;51.332;6.778;2023-02-05T04:15:26;8.50;99.90
921;DHT22;447;51.332;6.778;2023-02-05T04:17:55;8.50;99.90
921;DHT22;447;51.332;6.778;2023-02-05T04:20:24;8.50;99.90
921;DHT22;447;51.332;6.778;2023-02-05T04:22:55;8.50;99.90
921;DHT22;447;51.332;6.778;2023-02-05T04:25:24;8.50;99.90
921;DHT22;447;51.332;6.778;2023-02-05T04:27:53;8.50;99.90
921;DHT22;447;51.332;6.778;2023-02-05T04:30:19;8.50;99.90
921;DHT22;447;51.332;6.778;2023-02-05T04:32:46;8.50;99.90
921;DHT22;447;51.332;6.778;2023-02-05T04:35:17;8.50;99.90
921;DHT22;447;51.332;6.778;2023-02-05T04:37:45;8.50;99.90
921;DHT22;447;51.332;6.778;2023-02-05T04:40:11;8.40;99.90
921;DHT22;447;51.332;6.778;2023-02-05T04:42:37;8.50;99.90
921;DHT22;447;51.332;6.778;2023-02-05T04:45:09;8.50;99.90
921;DHT22;447;51.332;6.778;2023-02-05T04:47:35;8.50;99.90
921;DHT22;447;51.332;6.778;2023-02-05T04:50:01;8.50;99.90
921;DHT22;447;51.332;6.778;2023-02-05T04:52:29;8.50;99.90
921;DHT22;447;51.332;6.778;2023-02-05T04:54:55;8.50;99.90
921;DHT22;447;51.332;6.778;2023-02-05T04:57:24;8.50;99.90
921;DHT22;447;51.332;6.778;2023-02-05T04:59:52;8.50;99.90
921;DHT22;447;51.332;6.778;2023-02-05T05:02:18;8.50;99.90
921;DHT22;447;51.332;6.778;2023-02-05T05:04:44;8.50;99.90
921;DHT22;447;51.332;6.778;2023-02-05T05:07:10;8.50;99.90
921;DHT22;447;51.332;6.778;2023-02-05T05:09:38;8.40;99.90
921;DHT22;447;51.332;6.778;2023-02-05T05:12:05;8.40;99.90
921;DHT22;447;51.332;6.778;2023-02-05T05:14:31;8.50;99.90
921;DHT22;447;51.332;6.778;2023-02-05T05:16:57;8.50;99.90
921;DHT22;447;51.332;6.778;2023-02-05T05:19:23;8.50;99.90
921;DHT22;447;51.332;6.778;2023-02-05T05:21:49;8.50;99.90
921;DHT22;447;51.332;6.778;2023-02-05T05:24:20;8.40;99.90
921;DHT22;447;51.332;6.778;2023-02-05T05:26:48;8.40;99.90
921;DHT22;447;51.332;6.778;2023-02-05T05:29:14;8.40;99.90
921;DHT22;447;51.332;6.778;2023-02-05T05:31:41;8.40;99.90
921;DHT22;447;51.332;6.778;2023-02-05T05:34:09;8.40;99.90
921;DHT22;447;51.332;6.778;2023-02-05T05:36:35;8.40;99.90
921;DHT22;447;51.332;6.778;2023-02-05T05:39:02;8.40;99.90
921;DHT22;447;51.332;6.778;2023-02-05T05:41:46;8.40;99.90
921;DHT22;447;51.332;6.778;2023-02-05T05:44:31;8.40;99.90
921;DHT22;447;51.332;6.778;2023-02-05T05:46:57;8.40;99.90
921;DHT22;447;51.332;6.778;2023-02-05T05:49:23;8.40;99.90
921;DHT22;447;51.332;6.778;2023-02-05T05:51:51;8.40;99.90
921;DHT22;447;51.332;6.778;2023-02-05T05:54:17;8.40;99.90
921;DHT22;447;51.332;6.778;2023-02-05T05:56:44;8.40;99.90
921;DHT22;447;51.332;6.778;2023-02-05T05:59:11;8.40;99.90
921;DHT22;447;51.332;6.778;2023-02-05T06:01:37;8.40;99.90
921;DHT22;447;51.332;6.778;2023-02-05T06:04:03;8.40;99.90
921;DHT22;447;51.332;6.778;2023-02-05T06:06:29;8.40;99.90
921;DHT22;447;51.332;6.778;2023-02-05T06:08:55;8.40;99.90
921;DHT22;447;51.332;6.778;2023-02-05T06:11:21;8.40;99.90
921;DHT22;447;51.332;6.778;2023-02-05T06:13:47;8.40;99.90
921;DHT22;447;51.332;6.778;2023-02-05T06:16:14;8.40;99.90
921;DHT22;447;51.332;6.778;2023-02-05T06:18:42;8.40;99.90
921;DHT22;447;51.332;6.778;2023-02-05T06:21:11;8.40;99.90
921;DHT22;447;51.332;6.778;2023-02-05T06:23:37;8.40;99.90
921;DHT22;447;51.332;6.778;2023-02-05T06:26:03;8.40;99.90
921;DHT22;447;51.332;6.778;2023-02-05T06:28:29;8.40;99.90
921;DHT22;447;51.332;6.778;2023-02-05T06:30:55;8.40;99.90
921;DHT22;447;51.332;6.778;2023-02-05T06:33:23;8.40;99.90
921;DHT22;447;51.332;6.778;2023-02-05T06:35:54;8.40;99.90
921;DHT22;447;51.332;6.778;2023-02-05T06:38:22;8.40;99.90
921;DHT22;447;51.332;6.778;2023-02-05T06:40:50;8.40;99.90
921;DHT22;447;51.332;6.778;2023-02-05T06:43:19;8.40;99.90
921;DHT22;447;51.332;6.778;2023-02-05T06:45:50;8.40;99.90
921;DHT22;447;51.332;6.778;2023-02-05T06:48:20;8.40;99.90
921;DHT22;447;51.332;6.778;2023-02-05T06:50:47;8.40;99.90
921;DHT22;447;51.332;6.778;2023-02-05T06:53:13;8.40;99.90
921;DHT22;447;51.332;6.778;2023-02-05T06:55:39;8.40;99.90
921;DHT22;447;51.332;6.778;2023-02-05T06:58:07;8.40;99.90
921;DHT22;447;51.332;6.778;2023-02-05T07:00:38;8.40;99.90
921;DHT22;447;51.332;6.778;2023-02-05T07:03:07;8.40;99.90
921;DHT22;447;51.332;6.778;2023-02-05T07:05:35;8.40;99.90
921;DHT22;447;51.332;6.778;2023-02-05T07:08:04;8.40;99.90
921;DHT22;447;51.332;6.778;2023-02-05T07:10:31;8.40;99.90
921;DHT22;447;51.332;6.778;2023-02-05T07:13:02;8.40;99.90
921;DHT22;447;51.332;6.778;2023-02-05T07:15:30;8.40;99.90
921;DHT22;447;51.332;6.778;2023-02-05T07:18:01;8.40;99.90
921;DHT22;447;51.332;6.778;2023-02-05T07:20:29;8.40;99.90
921;DHT22;447;51.332;6.778;2023-02-05T07:22:58;8.40;99.90
921;DHT22;447;51.332;6.778;2023-02-05T07:25:25;8.40;99.90
921;DHT22;447;51.332;6.778;2023-02-05T07:27:51;8.40;99.90
921;DHT22;447;51.332;6.778;2023-02-05T07:30:19;8.40;99.90
921;DHT22;447;51.332;6.778;2023-02-05T07:32:45;8.40;99.90
921;DHT22;447;51.332;6.778;2023-02-05T07:35:14;8.40;99.90
921;DHT22;447;51.332;6.778;2023-02-05T07:37:42;8.40;99.90
921;DHT22;447;51.332;6.778;2023-02-05T07:40:11;8.40;99.90
921;DHT22;447;51.332;6.778;2023-02-05T07:42:37;8.40;99.90
921;DHT22;447;51.332;6.778;2023-02-05T07:45:07;8.40;99.90
921;DHT22;447;51.332;6.778;2023-02-05T07:47:33;8.40;99.90
921;DHT22;447;51.332;6.778;2023-02-05T07:50:01;8.40;99.90
921;DHT22;447;51.332;6.778;2023-02-05T07:52:31;8.40;99.90
921;DHT22;447;51.332;6.778;2023-02-05T07:55:00;8.40;99.90
921;DHT22;447;51.332;6.778;2023-02-05T07:57:30;8.40;99.90
921;DHT22;447;51.332;6.778;2023-02-05T07:59:56;8.40;99.90
921;DHT22;447;51.332;6.778;2023-02-05T08:02:31;8.40;99.90
921;DHT22;447;51.332;6.778;2023-02-05T08:04:57;8.40;99.90
921;DHT22;447;51.332;6.778;2023-02-05T08:07:23;8.40;99.90
921;DHT22;447;51.332;6.778;2023-02-05T08:09:51;8.40;99.90
921;DHT22;447;51.332;6.778;2023-02-05T08:12:17;8.40;99.90
921;DHT22;447;51.332;6.778;2023-02-05T08:14:45;8.40;99.90
921;DHT22;447;51.332;6.778;2023-02-05T08:17:11;8.40;99.90
921;DHT22;447;51.332;6.778;2023-02-05T08:19:37;8.40;99.90
921;DHT22;447;51.332;6.778;2023-02-05T08:22:03;8.40;99.90
921;DHT22;447;51.332;6.778;2023-02-05T08:24:33;8.40;99.90
921;DHT22;447;51.332;6.778;2023-02-05T08:26:59;8.40;99.90
921;DHT22;447;51.332;6.778;2023-02-05T08:29:28;8.40;99.90
921;DHT22;447;51.332;6.778;2023-02-05T08:31:54;8.40;99.90
921;DHT22;447;51.332;6.778;2023-02-05T08:34:20;8.40;99.90
921;DHT22;447;51.332;6.778;2023-02-05T08:36:48;8.40;99.90
921;DHT22;447;51.332;6.778;2023-02-05T08:39:17;8.40;99.90
921;DHT22;447;51.332;6.778;2023-02-05T08:41:43;8.40;99.90
921;DHT22;447;51.332;6.778;2023-02-05T08:44:11;8.40;99.90
921;DHT22;447;51.332;6.778;2023-02-05T08:46:39;8.40;99.90
921;DHT22;447;51.332;6.778;2023-02-05T08:49:05;8.30;99.90
921;DHT22;447;51.332;6.778;2023-02-05T08:51:34;8.40;99.90
921;DHT22;447;51.332;6.778;2023-02-05T08:54:04;8.40;99.90
921;DHT22;447;51.332;6.778;2023-02-05T08:56:33;8.40;99.90
921;DHT22;447;51.332;6.778;2023-02-05T08:58:59;8.40;99.90
921;DHT22;447;51.332;6.778;2023-02-05T09:01:25;8.40;99.90
921;DHT22;447;51.332;6.778;2023-02-05T09:03:52;8.30;99.90
921;DHT22;447;51.332;6.778;2023-02-05T09:06:21;8.40;99.90
921;DHT22;447;51.332;6.778;2023-02-05T09:08:50;8.40;99.90
921;DHT22;447;51.332;6.778;2023-02-05T09:11:20;8.40;99.90
921;DHT22;447;51.332;6.778;2023-02-05T09:13:46;8.30;99.90
921;DHT22;447;51.332;6.778;2023-02-05T09:16:15;8.30;99.90
921;DHT22;447;51.332;6.778;2023-02-05T09:18:41;8.30;99.90
921;DHT22;447;51.332;6.778;2023-02-05T09:21:12;8.30;99.90
921;DHT22;447;51.332;6.778;2023-02-05T09:23:38;8.30;99.90
921;DHT22;447;51.332;6.778;2023-02-05T09:26:04;8.30;99.90
921;DHT22;447;51.332;6.778;2023-02-05T09:28:35;8.30;99.90
921;DHT22;447;51.332;6.778;2023-02-05T09:31:12;8.30;99.90
921;DHT22;447;51.332;6.778;2023-02-05T09:33:40;8.30;99.90
921;DHT22;447;51.332;6.778;2023-02-05T09:36:12;8.30;99.90
921;DHT22;447;51.332;6.778;2023-02-05T09:38:38;8.30;99.90
921;DHT22;447;51.332;6.778;2023-02-05T09:43:52;8.30;99.90
921;DHT22;447;51.332;6.778;2023-02-05T09:52:01;8.30;99.90
921;DHT22;447;51.332;6.778;2023-02-05T09:54:35;8.30;99.90
921;DHT22;447;51.332;6.778;2023-02-05T09:57:11;8.30;99.90
921;DHT22;447;51.332;6.778;2023-02-05T09:59:48;8.30;99.90
921;DHT22;447;51.332;6.778;2023-02-05T10:04:59;8.30;99.90
921;DHT22;447;51.332;6.778;2023-02-05T10:10:24;8.30;99.90
921;DHT22;447;51.332;6.778;2023-02-05T10:16:00;8.30;99.90
921;DHT22;447;51.332;6.778;2023-02-05T10:26:30;8.30;99.90
921;DHT22;447;51.332;6.778;2023-02-05T10:34:50;8.30;99.90
921;DHT22;447;51.332;6.778;2023-02-05T10:40:30;8.30;99.90
921;DHT22;447;51.332;6.778;2023-02-05T10:45:58;8.30;99.90
921;DHT22;447;51.332;6.778;2023-02-05T10:48:42;8.30;99.90
921;DHT22;447;51.332;6.778;2023-02-05T10:51:15;8.30;99.90
921;DHT22;447;51.332;6.778;2023-02-05T10:53:42;8.30;99.90
921;DHT22;447;51.332;6.778;2023-02-05T10:56:15;8.30;99.90
921;DHT22;447;51.332;6.778;2023-02-05T10:59:00;8.30;99.90
921;DHT22;447;51.332;6.778;2023-02-05T11:01:35;8.30;99.90
921;DHT22;447;51.332;6.778;2023-02-05T11:06:37;8.30;99.90
921;DHT22;447;51.332;6.778;2023-02-05T11:14:38;8.40;99.90
921;DHT22;447;51.332;6.778;2023-02-05T11:19:53;8.30;99.90
921;DHT22;447;51.332;6.778;2023-02-05T11:25:14;8.30;99.90
921;DHT22;447;51.332;6.778;2023-02-05T11:27:57;8.40;99.90
921;DHT22;447;51.332;6.778;2023-02-05T11:33:23;8.30;99.90
921;DHT22;447;51.332;6.778;2023-02-05T11:36:05;8.40;99.90
921;DHT22;447;51.332;6.778;2023-02-05T11:41:15;8.30;99.90
921;DHT22;447;51.332;6.778;2023-02-05T11:43:57;8.40;99.90
921;DHT22;447;51.332;6.778;2023-02-05T11:46:28;8.30;99.90
921;DHT22;447;51.332;6.778;2023-02-05T11:49:04;8.30;99.90
921;DHT22;447;51.332;6.778;2023-02-05T11:51:40;8.30;99.90
921;DHT22;447;51.332;6.778;2023-02-05T11:54:29;8.30;99.90
921;DHT22;447;51.332;6.778;2023-02-05T12:02:41;8.40;99.90
921;DHT22;447;51.332;6.778;2023-02-05T12:05:18;8.30;99.90
921;DHT22;447;51.332;6.778;2023-02-05T12:10:21;8.30;99.90
921;DHT22;447;51.332;6.778;2023-02-05T12:13:10;8.30;99.90
921;DHT22;447;51.332;6.778;2023-02-05T12:19:04;8.40;99.90
921;DHT22;447;51.332;6.778;2023-02-05T12:26:38;8.30;99.90
921;DHT22;447;51.332;6.778;2023-02-05T12:29:30;8.30;99.90
921;DHT22;447;51.332;6.778;2023-02-05T12:40:23;8.30;99.90
921;DHT22;447;51.332;6.778;2023-02-05T12:56:48;8.30;99.90
921;DHT22;447;51.332;6.778;2023-02-05T13:02:03;8.30;99.90
921;DHT22;447;51.332;6.778;2023-02-05T13:04:39;8.30;99.90
921;DHT22;447;51.332;6.778;2023-02-05T13:07:43;8.30;99.90
921;DHT22;447;51.332;6.778;2023-02-05T13:10:18;8.30;99.90
921;DHT22;447;51.332;6.778;2023-02-05T13:13:06;8.30;99.90
921;DHT22;447;51.332;6.778;2023-02-05T13:15:49;8.30;99.90
921;DHT22;447;51.332;6.778;2023-02-05T13:18:22;8.30;99.90
921;DHT22;447;51.332;6.778;2023-02-05T13:21:05;8.30;99.90
921;DHT22;447;51.332;6.778;2023-02-05T13:24:01;8.30;99.90
921;DHT22;447;51.332;6.778;2023-02-05T13:26:46;8.30;99.90
921;DHT22;447;51.332;6.778;2023-02-05T13:29:40;8.30;99.90
921;DHT22;447;51.332;6.778;2023-02-05T13:32:12;8.30;99.90
921;DHT22;447;51.332;6.778;2023-02-05T13:34:44;8.30;99.90
921;DHT22;447;51.332;6.778;2023-02-05T13:43:02;8.30;99.90
921;DHT22;447;51.332;6.778;2023-02-05T13:54:13;8.30;99.90
921;DHT22;447;51.332;6.778;2023-02-05T13:57:26;8.30;99.90
921;DHT22;447;51.332;6.778;2023-02-05T14:00:02;8.30;99.90
921;DHT22;447;51.332;6.778;2023-02-05T14:02:43;8.30;99.90
921;DHT22;447;51.332;6.778;2023-02-05T14:05:11;8.30;99.90
921;DHT22;447;51.332;6.778;2023-02-05T14:07:46;8.30;99.90
921;DHT22;447;51.332;6.778;2023-02-05T14:10:32;8.30;99.90
921;DHT22;447;51.332;6.778;2023-02-05T14:13:23;8.30;99.90
921;DHT22;447;51.332;6.778;2023-02-05T14:15:50;8.30;99.90
921;DHT22;447;51.332;6.778;2023-02-05T14:23:56;8.30;99.90
921;DHT22;447;51.332;6.778;2023-02-05T14:32:02;8.40;99.90
921;DHT22;447;51.332;6.778;2023-02-05T14:36:58;8.40;99.90
921;DHT22;447;51.332;6.778;2023-02-05T14:39:32;8.40;99.90
921;DHT22;447;51.332;6.778;2023-02-05T14:42:00;8.40;99.90
921;DHT22;447;51.332;6.778;2023-02-05T14:44:30;8.40;99.90
921;DHT22;447;51.332;6.778;2023-02-05T14:49:47;8.40;99.90
921;DHT22;447;51.332;6.778;2023-02-05T14:52:36;8.40;99.90
921;DHT22;447;51.332;6.778;2023-02-05T14:57:43;8.40;99.90
921;DHT22;447;51.332;6.778;2023-02-05T15:06:19;8.40;99.90
921;DHT22;447;51.332;6.778;2023-02-05T15:13:38;8.40;99.90
921;DHT22;447;51.332;6.778;2023-02-05T15:18:58;8.40;99.90
921;DHT22;447;51.332;6.778;2023-02-05T15:21:28;8.40;99.90
921;DHT22;447;51.332;6.778;2023-02-05T15:31:46;8.40;99.90
921;DHT22;447;51.332;6.778;2023-02-05T15:37:32;8.40;99.90
921;DHT22;447;51.332;6.778;2023-02-05T15:39:54;8.40;99.90
921;DHT22;447;51.332;6.778;2023-02-05T15:42:28;8.40;99.90
921;DHT22;447;51.332;6.778;2023-02-05T15:44:56;8.40;99.90
921;DHT22;447;51.332;6.778;2023-02-05T15:47:24;8.40;99.90
921;DHT22;447;51.332;6.778;2023-02-05T15:49:55;8.40;99.90
921;DHT22;447;51.332;6.778;2023-02-05T15:52:25;8.40;99.90
921;DHT22;447;51.332;6.778;2023-02-05T15:54:54;8.40;99.90
921;DHT22;447;51.332;6.778;2023-02-05T15:57:31;8.40;99.90
921;DHT22;447;51.332;6.778;2023-02-05T15:59:58;8.40;99.90
921;DHT22;447;51.332;6.778;2023-02-05T16:02:28;8.40;99.90
921;DHT22;447;51.332;6.778;2023-02-05T16:05:00;8.40;99.90
921;DHT22;447;51.332;6.778;2023-02-05T16:07:34;8.40;99.90
921;DHT22;447;51.332;6.778;2023-02-05T16:10:21;8.40;99.90
921;DHT22;447;51.332;6.778;2023-02-05T16:12:59;8.40;99.90
921;DHT22;447;51.332;6.778;2023-02-05T16:18:05;8.40;99.90
921;DHT22;447;51.332;6.778;2023-02-05T16:20:35;8.40;99.90
921;DHT22;447;51.332;6.778;2023-02-05T16:23:14;8.40;99.90
921;DHT22;447;51.332;6.778;2023-02-05T16:25:49;8.40;99.90
921;DHT22;447;51.332;6.778;2023-02-05T16:28:38;8.40;99.90
921;DHT22;447;51.332;6.778;2023-02-05T16:31:06;8.40;99.90
921;DHT22;447;51.332;6.778;2023-02-05T16:34:15;8.40;99.90
921;DHT22;447;51.332;6.778;2023-02-05T16:36:24;8.40;99.90
921;DHT22;447;51.332;6.778;2023-02-05T16:38:58;8.40;99.90
921;DHT22;447;51.332;6.778;2023-02-05T16:41:28;8.30;99.90
921;DHT22;447;51.332;6.778;2023-02-05T16:43:59;8.40;99.90
921;DHT22;447;51.332;6.778;2023-02-05T16:46:32;8.30;99.90
921;DHT22;447;51.332;6.778;2023-02-05T16:51:54;8.30;99.90
921;DHT22;447;51.332;6.778;2023-02-05T16:54:24;8.30;99.90
921;DHT22;447;51.332;6.778;2023-02-05T16:57:08;8.30;99.90
921;DHT22;447;51.332;6.778;2023-02-05T16:59:50;8.30;99.90
921;DHT22;447;51.332;6.778;2023-02-05T17:02:27;8.30;99.90
921;DHT22;447;51.332;6.778;2023-02-05T17:04:54;8.30;99.90
921;DHT22;447;51.332;6.778;2023-02-05T17:07:22;8.30;99.90
921;DHT22;447;51.332;6.778;2023-02-05T17:09:49;8.30;99.90
921;DHT22;447;51.332;6.778;2023-02-05T17:17:30;8.30;99.90
921;DHT22;447;51.332;6.778;2023-02-05T17:20:04;8.30;99.90
921;DHT22;447;51.332;6.778;2023-02-05T17:22:30;8.30;99.90
921;DHT22;447;51.332;6.778;2023-02-05T17:25:00;8.30;99.90
921;DHT22;447;51.332;6.778;2023-02-05T17:27:35;8.30;99.90
921;DHT22;447;51.332;6.778;2023-02-05T17:30:05;8.30;99.90
921;DHT22;447;51.332;6.778;2023-02-05T17:32:35;8.30;99.90
921;DHT22;447;51.332;6.778;2023-02-05T17:35:20;8.30;99.90
921;DHT22;447;51.332;6.778;2023-02-05T17:37:47;8.30;99.90
921;DHT22;447;51.332;6.778;2023-02-05T17:40:14;8.30;99.90
921;DHT22;447;51.332;6.778;2023-02-05T17:42:43;8.30;99.90
921;DHT22;447;51.332;6.778;2023-02-05T17:45:25;8.30;99.90
921;DHT22;447;51.332;6.778;2023-02-05T17:47:51;8.30;99.90
921;DHT22;447;51.332;6.778;2023-02-05T17:50:17;8.30;99.90
921;DHT22;447;51.332;6.778;2023-02-05T17:52:44;8.30;99.90
921;DHT22;447;51.332;6.778;2023-02-05T17:55:16;8.30;99.90
921;DHT22;447;51.332;6.778;2023-02-05T17:57:45;8.30;99.90
921;DHT22;447;51.332;6.778;2023-02-05T18:00:19;8.30;99.90
921;DHT22;447;51.332;6.778;2023-02-05T18:02:45;8.30;99.90
921;DHT22;447;51.332;6.778;2023-02-05T18:05:12;8.30;99.90
921;DHT22;447;51.332;6.778;2023-02-05T18:07:45;8.20;99.90
921;DHT22;447;51.332;6.778;2023-02-05T18:10:14;8.20;99.90
921;DHT22;447;51.332;6.778;2023-02-05T18:12:46;8.20;99.90
921;DHT22;447;51.332;6.778;2023-02-05T18:15:13;8.30;99.90
921;DHT22;447;51.332;6.778;2023-02-05T18:17:41;8.30;99.90
921;DHT22;447;51.332;6.778;2023-02-05T18:20:08;8.30;99.90
921;DHT22;447;51.332;6.778;2023-02-05T18:22:35;8.20;99.90
921;DHT22;447;51.332;6.778;2023-02-05T18:25:02;8.20;99.90
921;DHT22;447;51.332;6.778;2023-02-05T18:27:30;8.20;99.90
921;DHT22;447;51.332;6.778;2023-02-05T18:30:01;8.20;99.90
921;DHT22;447;51.332;6.778;2023-02-05T18:32:27;8.20;99.90
921;DHT22;447;51.332;6.778;2023-02-05T18:34:55;8.20;99.90
921;DHT22;447;51.332;6.778;2023-02-05T18:37:21;8.20;99.90
921;DHT22;447;51.332;6.778;2023-02-05T18:39:52;8.20;99.90
921;DHT22;447;51.332;6.778;2023-02-05T18:42:21;8.20;99.90
921;DHT22;447;51.332;6.778;2023-02-05T18:44:47;8.20;99.90
921;DHT22;447;51.332;6.778;2023-02-05T18:47:16;8.20;99.90
921;DHT22;447;51.332;6.778;2023-02-05T18:49:42;8.20;99.90
921;DHT22;447;51.332;6.778;2023-02-05T18:52:07;8.20;99.90
921;DHT22;447;51.332;6.778;2023-02-05T18:54:39;8.20;99.90
921;DHT22;447;51.332;6.778;2023-02-05T18:57:05;8.20;99.90
921;DHT22;447;51.332;6.778;2023-02-05T18:59:31;8.20;99.90
921;DHT22;447;51.332;6.778;2023-02-05T19:01:57;8.20;99.90
921;DHT22;447;51.332;6.778;2023-02-05T19:04:23;8.20;99.90
921;DHT22;447;51.332;6.778;2023-02-05T19:06:51;8.20;99.90
921;DHT22;447;51.332;6.778;2023-02-05T19:09:20;8.20;99.90
921;DHT22;447;51.332;6.778;2023-02-05T19:11:47;8.20;99.90
921;DHT22;447;51.332;6.778;2023-02-05T19:14:15;8.20;99.90
921;DHT22;447;51.332;6.778;2023-02-05T19:16:42;8.20;99.90
921;DHT22;447;51.332;6.778;2023-02-05T19:19:13;8.20;99.90
921;DHT22;447;51.332;6.778;2023-02-05T19:21:39;8.20;99.90
921;DHT22;447;51.332;6.778;2023-02-05T19:24:06;8.20;99.90
921;DHT22;447;51.332;6.778;2023-02-05T19:26:36;8.10;99.90
921;DHT22;447;51.332;6.778;2023-02-05T19:29:05;8.20;99.90
921;DHT22;447;51.332;6.778;2023-02-05T19:31:34;8.20;99.90
921;DHT22;447;51.332;6.778;2023-02-05T19:34:00;8.20;99.90
921;DHT22;447;51.332;6.778;2023-02-05T19:36:27;8.10;99.90
921;DHT22;447;51.332;6.778;2023-02-05T19:38:57;8.20;99.90
921;DHT22;447;51.332;6.778;2023-02-05T19:41:24;8.10;99.90
921;DHT22;447;51.332;6.778;2023-02-05T19:43:53;8.20;99.90
921;DHT22;447;51.332;6.778;2023-02-05T19:46:26;8.20;99.90
921;DHT22;447;51.332;6.778;2023-02-05T19:48:55;8.10;99.90
921;DHT22;447;51.332;6.778;2023-02-05T19:51:21;8.20;99.90
921;DHT22;447;51.332;6.778;2023-02-05T19:53:47;8.20;99.90
921;DHT22;447;51.332;6.778;2023-02-05T19:56:19;8.10;99.90
921;DHT22;447;51.332;6.778;2023-02-05T19:58:52;8.10;99.90
921;DHT22;447;51.332;6.778;2023-02-05T20:01:29;8.10;99.90
921;DHT22;447;51.332;6.778;2023-02-05T20:04:04;8.10;99.90
921;DHT22;447;51.332;6.778;2023-02-05T20:06:30;8.10;99.90
921;DHT22;447;51.332;6.778;2023-02-05T20:09:02;8.10;99.90
921;DHT22;447;51.332;6.778;2023-02-05T20:11:30;8.10;99.90
921;DHT22;447;51.332;6.778;2023-02-05T20:13:59;8.10;99.90
921;DHT22;447;51.332;6.778;2023-02-05T20:16:26;8.10;99.90
921;DHT22;447;51.332;6.778;2023-02-05T20:18:58;8.10;99.90
921;DHT22;447;51.332;6.778;2023-02-05T20:21:26;8.10;99.90
921;DHT22;447;51.332;6.778;2023-02-05T20:23:55;8.10;99.90
921;DHT22;447;51.332;6.778;2023-02-05T20:26:24;8.10;99.90
921;DHT22;447;51.332;6.778;2023-02-05T20:28:55;8.10;99.90
921;DHT22;447;51.332;6.778;2023-02-05T20:31:47;8.10;99.90